King Salmon, AK (99549)

8:39 AM AKDT on May 22, 2015 (GMT -0800)
Port Heiden | | Change Station
CLOSE
Current Station
Airport
Location: Port Heiden,
Elevation: 95 ft
Nearby Weather Stations

Elev 95 ft 56.96 °N, 158.63 °W | Updated 3 minutes ago

Overcast
Overcast
46 °F
Feels Like 42 °F
N
10
Wind Variable Wind from SSE

Today
High -- | Low -- °F
--% Chance of Precip.
Yesterday
High -- | Low -- °F
Precip. -- in
6:03 AM 11:00 PM
Waxing Crescent, 22% visible
Pressure 29.99 in
Visibility 10.0 miles
Clouds Scattered Clouds 4100 ft
Overcast 4900 ft
Windchill 42 °F
Dew Point 37 °F
Humidity 71%
Rainfall 0.06 in
Snow Depth Not available.
UV 0 out of 12
Pollen Not available.
Air Quality Not available.
Flu Activity Sporadic
METAR PAPH 221636Z AUTO 15009KT 10SM SCT041 OVC049 08/03 A2999 RMK AO1

More Conditions Fewer Conditions

Pressure 29.99 in
Visibility 10.0 miles
Clouds Scattered Clouds 4100 ft
Overcast 4900 ft
Windchill 42 °F
Dew Point 37 °F
Humidity 71%
Rainfall 0.06 in
Snow Depth Not available.
UV 0 out of 12
Pollen Not available.
Air Quality Not available.
Flu Activity Sporadic
METAR PAPH 221636Z AUTO 15009KT 10SM SCT041 OVC049 08/03 A2999 RMK AO1

More Conditions Fewer Conditions

10-Day Weather Forecast

Almanac

Astronomy

May. 22, 2015 Rise Set
Actual Time
Civil Twilight
Nautical Twilight
Astronomical Twilight
Moon
Length of Visible Light
Length of Day
Tomorrow will be .
, % of the Moon is Illuminated

Today's Extremes

State Highs State Lows

Community

WunderPhotos

Upload Photos

1,823,262 photos uploaded!

WunderBlogs® & News

Nearby

Air Quality

  Air Quality AQ Index Pollutant
Not available.

Snow Depth

Station Depth Elevation

Earthquake Activity

City Distance Mag. Time & Date
Minimum magnitude displayed is 2.5.

Coastal Water Temperatures

Place Temperature

Stations

Nearby Weather Stations

Station Location Temp. Windchill Dew Point Humidity Wind Precip. Elev Updated Type